createdAt,value
2023-04-10T00:04:16.096Z,101278.84
2023-04-10T00:09:15.041Z,101272.09
2023-04-10T00:14:15.291Z,101272.19
2023-04-10T00:19:14.088Z,101274.19
2023-04-10T00:24:12.854Z,101269.75
2023-04-10T00:29:11.646Z,101261.28
2023-04-10T00:34:11.946Z,101254.47
2023-04-10T00:39:11.156Z,101255.69
2023-04-10T00:44:09.950Z,101241.47
2023-04-10T00:49:09.750Z,101230.41
2023-04-10T00:54:10.946Z,101229.59
2023-04-10T00:59:09.753Z,101227.81
2023-04-10T01:04:10.062Z,101221.59
2023-04-10T01:09:18.899Z,101220.03
2023-04-10T01:14:24.508Z,101223.53
2023-04-10T01:19:37.356Z,101213.59
2023-04-10T01:24:51.441Z,101214.25
2023-04-10T01:29:57.565Z,101217.03
2023-04-10T01:35:00.887Z,101216.72
2023-04-10T01:40:03.080Z,101222.22
2023-04-10T01:45:05.777Z,101216.41
2023-04-10T01:50:05.600Z,101216.88
2023-04-10T01:55:05.762Z,101218.97
2023-04-10T02:00:14.819Z,101212.25
2023-04-10T02:05:17.601Z,101209.59
2023-04-10T02:10:21.911Z,101215.16
2023-04-10T02:15:23.944Z,101221.94
2023-04-10T02:20:25.027Z,101208.59
2023-04-10T02:25:23.846Z,101207.09
2023-04-10T02:30:24.932Z,101209.03
2023-04-10T02:35:23.921Z,101203.22
2023-04-10T02:40:22.877Z,101200.09
2023-04-10T02:45:30.000Z,101193.41
2023-04-10T02:50:29.808Z,101198.69
2023-04-10T02:55:28.801Z,101199.28
2023-04-10T03:00:29.252Z,101204.13
2023-04-10T03:05:41.210Z,101201.84
2023-04-10T03:10:40.205Z,101207.91
2023-04-10T03:15:40.680Z,101200.94
2023-04-10T03:20:39.673Z,101207.22
2023-04-10T03:25:38.672Z,101207.09
2023-04-10T03:30:40.969Z,101207.28
2023-04-10T03:35:41.356Z,101214.34
2023-04-10T03:40:40.277Z,101219.53
2023-04-10T03:45:43.175Z,101219.03
2023-04-10T03:50:42.688Z,101224.56
2023-04-10T03:55:41.503Z,101232.63
2023-04-10T04:00:42.745Z,101232.72
2023-04-10T04:05:54.342Z,101225.13
2023-04-10T04:11:01.309Z,101224.88
2023-04-10T04:16:12.365Z,101233.69
2023-04-10T04:21:22.748Z,101231.81
2023-04-10T04:26:39.350Z,101233.41
2023-04-10T04:32:05.737Z,101228.84
2023-04-10T04:37:26.474Z,101229.66
2023-04-10T04:43:03.807Z,101232.84
2023-04-10T04:48:30.019Z,101233.72
2023-04-10T04:53:52.031Z,101237.50
2023-04-10T04:59:09.720Z,101243.16
2023-04-10T05:04:28.183Z,101239.72
2023-04-10T05:09:34.906Z,101236.34
2023-04-10T05:14:42.831Z,101238.56
2023-04-10T05:20:15.838Z,101236.31
2023-04-10T05:25:40.914Z,101248.19
2023-04-10T05:30:49.223Z,101243.59
2023-04-10T05:36:09.168Z,101255.56
2023-04-10T05:41:24.579Z,101244.59
2023-04-10T05:46:41.764Z,101250.63
2023-04-10T05:51:52.137Z,101253.78
2023-04-10T05:57:13.841Z,101244.09
2023-04-10T06:02:36.134Z,101256.78
2023-04-10T06:07:36.712Z,101255.06
2023-04-10T06:12:35.795Z,101257.94
2023-04-10T06:17:36.960Z,101254.47
2023-04-10T06:28:26.872Z,101267.31
2023-04-10T06:33:29.350Z,101265.16
2023-04-10T06:38:29.813Z,101261.28
2023-04-10T06:43:30.101Z,101258.97
2023-04-10T06:48:29.906Z,101256.72
2023-04-10T06:53:30.431Z,101259.81
2023-04-10T06:58:29.278Z,101258.50
2023-04-10T07:03:28.204Z,101252.47
2023-04-10T07:08:27.079Z,101261.38
2023-04-10T07:13:29.453Z,101263.38
2023-04-10T07:18:28.245Z,101264.78
2023-04-10T07:23:27.587Z,101271.38
2023-04-10T07:28:27.771Z,101264.88
2023-04-10T07:33:27.351Z,101262.41
2023-04-10T07:38:26.322Z,101257.56
2023-04-10T07:43:25.114Z,101251.75
2023-04-10T07:48:25.373Z,101257.81
2023-04-10T07:53:24.108Z,101253.81
2023-04-10T07:58:22.913Z,101245.34
2023-04-10T08:03:21.861Z,101247.69
2023-04-10T08:08:22.041Z,101236.84
2023-04-10T08:13:20.777Z,101227.09
2023-04-10T08:18:19.523Z,101230.66
2023-04-10T08:23:21.173Z,101221.75
2023-04-10T08:28:21.597Z,101228.09
2023-04-10T08:33:20.344Z,101234.47
2023-04-10T08:38:25.071Z,101223.06
2023-04-10T08:43:25.417Z,101214.47
2023-04-10T08:48:32.529Z,101207.38
2023-04-10T08:53:33.484Z,101193.28
2023-04-10T08:58:33.726Z,101188.78
2023-04-10T09:03:32.789Z,101174.50
2023-04-10T09:08:31.690Z,101166.13
2023-04-10T09:13:39.540Z,101158.09
2023-04-10T09:18:54.016Z,101141.41
2023-04-10T09:24:01.953Z,101140.91
2023-04-10T09:29:03.721Z,101131.09
2023-04-10T09:34:10.567Z,101121.13
2023-04-10T09:39:10.555Z,101116.47
2023-04-10T09:44:12.538Z,101107.41
2023-04-10T09:49:11.323Z,101102.03
2023-04-10T09:54:11.687Z,101090.44
2023-04-10T09:59:27.178Z,101094.66
2023-04-10T10:04:27.153Z,101085.44
2023-04-10T10:09:28.270Z,101076.44
2023-04-10T10:14:30.140Z,101072.47
2023-04-10T10:19:35.241Z,101065.44
2023-04-10T10:24:37.829Z,101056.25
2023-04-10T10:29:40.004Z,101048.81
2023-04-10T10:34:38.909Z,101037.03
2023-04-10T10:39:49.096Z,101035.09
2023-04-10T10:44:53.973Z,101031.56
2023-04-10T10:49:58.116Z,101026.81
2023-04-10T10:54:59.483Z,101024.69
2023-04-10T10:59:59.711Z,101016.16
2023-04-10T11:04:58.300Z,101020.47
2023-04-10T11:09:57.848Z,101005.28
2023-04-10T11:15:03.208Z,101001.56
2023-04-10T11:20:02.410Z,100995.53
2023-04-10T11:25:03.214Z,100992.00
2023-04-10T11:30:04.781Z,100989.56
2023-04-10T11:35:05.098Z,100984.69
2023-04-10T11:40:07.745Z,100970.25
2023-04-10T11:45:27.177Z,100975.13
2023-04-10T11:50:32.406Z,100964.56
2023-04-10T11:55:40.681Z,100957.34
2023-04-10T12:00:40.966Z,100948.44
2023-04-10T12:05:47.460Z,100943.00
2023-04-10T12:10:49.190Z,100944.56
2023-04-10T12:15:49.469Z,100931.31
2023-04-10T12:20:48.807Z,100924.72
2023-04-10T12:25:47.569Z,100907.03
2023-04-10T12:30:52.998Z,100905.31
2023-04-10T12:35:52.786Z,100894.13
2023-04-10T12:41:09.812Z,100890.19
2023-04-10T12:46:11.584Z,100892.94
2023-04-10T12:51:11.628Z,100880.69
2023-04-10T12:56:12.425Z,100880.84
2023-04-10T13:01:15.763Z,100874.84
2023-04-10T13:06:15.212Z,100882.13
2023-04-10T13:11:14.094Z,100874.44
2023-04-10T13:16:14.339Z,100856.22
2023-04-10T13:21:18.446Z,100858.28
2023-04-10T13:26:17.345Z,100848.31
2023-04-10T13:31:17.773Z,100864.03
2023-04-10T13:36:17.043Z,100848.81
2023-04-10T13:41:15.829Z,100852.69
2023-04-10T13:46:14.601Z,100854.44
2023-04-10T13:51:14.855Z,100846.88
2023-04-10T13:56:13.632Z,100845.47
2023-04-10T14:01:14.537Z,100840.91
2023-04-10T14:06:15.548Z,100836.16
2023-04-10T14:11:14.296Z,100824.47
2023-04-10T14:16:13.280Z,100828.44
2023-04-10T14:21:12.084Z,100829.25
2023-04-10T14:26:12.319Z,100823.97
2023-04-10T14:31:12.593Z,100823.28
2023-04-10T14:36:11.492Z,100826.75
2023-04-10T14:41:11.537Z,100830.81
2023-04-10T14:46:10.606Z,100819.28
2023-04-10T14:51:12.843Z,100827.16
2023-04-10T14:56:14.577Z,100817.56
2023-04-10T15:01:16.743Z,100816.75
2023-04-10T15:06:15.688Z,100817.44
2023-04-10T15:11:15.820Z,100812.22
2023-04-10T15:16:14.650Z,100818.63
2023-04-10T15:21:16.843Z,100814.69
2023-04-10T15:26:17.201Z,100817.94
2023-04-10T15:31:19.215Z,100810.06
2023-04-10T15:36:21.158Z,100812.81
2023-04-10T15:41:23.044Z,100803.44
2023-04-10T15:46:22.223Z,100799.44
2023-04-10T15:51:21.503Z,100798.59
2023-04-10T15:56:23.740Z,100787.81
2023-04-10T16:01:22.612Z,100785.44
2023-04-10T16:06:21.510Z,100779.38
2023-04-10T16:11:20.547Z,100789.09
2023-04-10T16:16:21.051Z,100789.16
2023-04-10T16:21:21.458Z,100784.75
2023-04-10T16:26:21.406Z,100780.19
2023-04-10T16:31:21.666Z,100778.91
2023-04-10T16:36:20.574Z,100785.13
2023-04-10T16:41:20.910Z,100777.63
2023-04-10T16:46:21.313Z,100781.28
2023-04-10T16:51:20.528Z,100780.53
2023-04-10T16:56:19.302Z,100782.22
2023-04-10T17:01:20.074Z,100785.22
2023-04-10T17:06:21.219Z,100795.69
2023-04-10T17:11:20.420Z,100789.31
2023-04-10T17:16:19.247Z,100794.97
2023-04-10T17:21:19.394Z,100803.41
2023-04-10T17:26:18.417Z,100812.84
2023-04-10T17:31:18.339Z,100809.75
2023-04-10T17:36:17.157Z,100809.19
2023-04-10T17:41:17.305Z,100815.94
2023-04-10T17:46:17.361Z,100809.69
2023-04-10T17:51:16.202Z,100814.03
2023-04-10T17:56:22.601Z,100822.31
2023-04-10T18:01:30.473Z,100822.66
2023-04-10T18:06:30.233Z,100813.00
2023-04-10T18:11:35.897Z,100818.56
2023-04-10T18:16:34.541Z,100814.34
2023-04-10T18:21:34.690Z,100819.53
2023-04-10T18:26:35.033Z,100826.75
2023-04-10T18:31:33.816Z,100827.22
2023-04-10T18:36:33.013Z,100833.75
2023-04-10T18:41:31.851Z,100825.47
2023-04-10T18:46:32.876Z,100826.88
2023-04-10T18:51:34.986Z,100821.06
2023-04-10T18:56:35.891Z,100829.38
2023-04-10T19:01:36.195Z,100825.47
2023-04-10T19:06:41.967Z,100818.47
2023-04-10T19:11:47.129Z,100823.38
2023-04-10T19:16:51.818Z,100816.03
2023-04-10T19:21:54.212Z,100819.63
2023-04-10T19:26:55.803Z,100822.72
2023-04-10T19:31:57.823Z,100812.56
2023-04-10T19:36:59.941Z,100813.31
2023-04-10T19:41:58.744Z,100805.97
2023-04-10T19:46:59.043Z,100809.16
2023-04-10T19:51:57.788Z,100810.19
2023-04-10T19:56:56.911Z,100818.28
2023-04-10T20:01:56.197Z,100827.66
2023-04-10T20:06:56.366Z,100824.09
2023-04-10T20:11:55.123Z,100823.25
2023-04-10T20:16:55.894Z,100818.91
2023-04-10T20:21:54.884Z,100806.38
2023-04-10T20:26:55.347Z,100814.75
2023-04-10T20:31:54.264Z,100802.03
2023-04-10T20:36:52.941Z,100802.09
2023-04-10T20:41:51.591Z,100799.97
2023-04-10T20:46:51.800Z,100797.25
2023-04-10T20:51:50.584Z,100797.66
2023-04-10T20:56:49.565Z,100792.16
2023-04-10T21:01:48.390Z,100799.03
2023-04-10T21:06:48.490Z,100794.38
2023-04-10T21:11:47.187Z,100795.94
2023-04-10T21:16:45.987Z,100787.59
2023-04-10T21:21:44.789Z,100784.19
2023-04-10T21:26:44.859Z,100784.19
2023-04-10T21:31:43.613Z,100777.09
2023-04-10T21:36:42.568Z,100776.22
2023-04-10T21:41:41.569Z,100771.88
2023-04-10T21:46:41.972Z,100757.44
2023-04-10T21:51:41.645Z,100752.38
2023-04-10T21:56:41.459Z,100751.69
2023-04-10T22:01:41.859Z,100747.97
2023-04-10T22:06:40.728Z,100737.78
2023-04-10T22:11:40.424Z,100739.13
2023-04-10T22:16:39.303Z,100742.00
2023-04-10T22:21:39.410Z,100737.66
2023-04-10T22:26:38.042Z,100737.69
2023-04-10T22:31:36.773Z,100734.63
2023-04-10T22:36:35.592Z,100732.19
2023-04-10T22:41:35.746Z,100730.78
2023-04-10T22:46:35.002Z,100719.00
2023-04-10T22:51:33.724Z,100705.84
2023-04-10T22:56:32.381Z,100703.94
2023-04-10T23:01:32.603Z,100703.28
2023-04-10T23:06:31.890Z,100698.34
2023-04-10T23:11:30.834Z,100689.34
2023-04-10T23:16:29.741Z,100692.06
2023-04-10T23:21:30.023Z,100688.28
2023-04-10T23:26:31.199Z,100689.81
2023-04-10T23:31:30.015Z,100677.91
2023-04-10T23:36:30.217Z,100677.28
2023-04-10T23:41:29.005Z,100675.97
2023-04-10T23:46:27.970Z,100657.59
2023-04-10T23:51:28.010Z,100655.13
2023-04-10T23:56:29.448Z,100647.19
